Time;durP1;ratioP1;P1;durP2;ratioP2;P2;SDS_P1;SDS_P2;PMS_P1;PMS_P2;Temp;Humidity;BMP_temperature;BMP_pressure;BME280_temperature;BME280_humidity;BME280_pressure;Samples;Min_cycle;Max_cycle;Signal;HPM_P1;HPM_P2
2023/12/15 00:01:45;;;;;;;;;6.50;6.50;;;;;10.96;85.29;102561.19;5069877;28;46747;-69
2023/12/15 00:04:14;;;;;;;;;9.00;9.00;;;;;11.13;85.30;102580.69;5055077;28;45469;-69
2023/12/15 00:06:41;;;;;;;;;8.75;8.00;;;;;10.98;85.62;102563.88;5056696;28;45299;-69
2023/12/15 00:09:07;;;;;;;;;6.25;6.00;;;;;10.84;85.64;102547.88;5057154;28;45454;-67
2023/12/15 00:11:34;;;;;;;;;9.25;9.25;;;;;10.97;86.08;102560.28;5069644;28;47231;-67
2023/12/15 00:14:02;;;;;;;;;7.75;7.75;;;;;10.84;85.74;102539.88;5054853;28;45619;-67
2023/12/15 00:16:30;;;;;;;;;10.50;9.00;;;;;10.90;85.89;102546.06;5054260;28;45532;-67
2023/12/15 00:18:55;;;;;;;;;12.25;9.00;;;;;11.06;86.07;102589.66;5054730;28;45335;-67
2023/12/15 00:21:22;;;;;;;;;7.50;7.50;;;;;10.95;86.49;102564.75;5054460;28;45362;-67
2023/12/15 00:23:50;;;;;;;;;8.00;6.75;;;;;11.17;85.96;102599.41;5058372;28;45351;-67
2023/12/15 00:26:16;;;;;;;;;9.25;9.00;;;;;10.98;86.24;102563.88;5040480;28;45631;-67
2023/12/15 00:28:41;;;;;;;;;9.75;9.75;;;;;11.03;86.29;102576.31;5052692;28;45448;-66
2023/12/15 00:31:07;;;;;;;;;8.75;8.00;;;;;11.00;86.54;102572.75;5058435;27;46982;-67
2023/12/15 00:33:32;;;;;;;;;5.50;5.25;;;;;11.03;86.20;102573.63;5041145;28;45518;-67
2023/12/15 00:36:01;;;;;;;;;6.50;5.75;;;;;11.15;86.57;102599.41;5040947;28;45406;-67
2023/12/15 00:38:27;;;;;;;;;4.75;4.75;;;;;11.14;86.44;102584.25;5047300;28;45591;-67
2023/12/15 00:40:52;;;;;;;;;5.75;4.75;;;;;11.05;86.13;102566.47;5043152;28;46061;-67
2023/12/15 00:43:18;;;;;;;;;6.00;6.00;;;;;11.30;86.65;102603.78;5040897;28;45343;-67
2023/12/15 00:45:43;;;;;;;;;6.00;6.00;;;;;11.12;86.78;102576.25;5040874;28;45504;-67
2023/12/15 00:48:09;;;;;;;;;10.00;10.00;;;;;11.32;86.29;102618.03;5047789;28;45470;-67
2023/12/15 00:50:34;;;;;;;;;10.75;8.75;;;;;11.28;86.42;102618.94;5039271;28;47027;-67
2023/12/15 00:53:00;;;;;;;;;4.75;4.75;;;;;11.24;86.85;102614.50;5044636;28;45484;-66
2023/12/15 00:55:31;;;;;;;;;9.25;6.00;;;;;11.19;86.90;102597.59;5045866;28;45423;-67
2023/12/15 00:57:56;;;;;;;;;7.75;7.75;;;;;11.12;87.29;102588.72;5060683;28;45310;-67
2023/12/15 01:00:22;;;;;;;;;9.75;9.00;;;;;10.96;87.00;102569.22;5046975;28;45497;-67
2023/12/15 01:02:49;;;;;;;;;11.00;8.75;;;;;11.06;86.99;102586.97;5069677;28;45693;-67
2023/12/15 01:05:15;;;;;;;;;8.00;8.00;;;;;10.98;86.96;102570.09;5072294;27;45462;-67
2023/12/15 01:07:40;;;;;;;;;8.00;7.50;;;;;11.28;86.87;102619.81;5040563;28;45360;-67
2023/12/15 01:10:09;;;;;;;;;10.50;10.50;;;;;11.20;87.11;102599.38;5049707;28;46387;-67
2023/12/15 01:12:42;;;;;;;;;8.75;8.75;;;;;11.06;87.30;102564.69;5065858;28;45627;-67
2023/12/15 01:15:10;;;;;;;;;9.50;8.25;;;;;11.17;86.94;102591.38;5073009;28;45456;-67
2023/12/15 01:17:38;;;;;;;;;9.75;7.00;;;;;11.20;87.14;102600.25;5073979;28;45532;-66
2023/12/15 01:20:14;;;;;;;;;;;;;;;;;;;;;
2023/12/15 01:22:47;;;;;;;;;5.25;5.25;;;;;11.01;87.43;102566.50;5057094;28;73986;-66
2023/12/15 01:25:12;;;;;;;;;10.50;9.25;;;;;11.21;87.53;102606.50;5076054;28;45382;-67
2023/12/15 01:27:38;;;;;;;;;8.25;8.25;;;;;11.16;87.24;102594.94;5060205;28;45295;-66
2023/12/15 01:30:04;;;;;;;;;9.75;8.25;;;;;11.16;87.31;102601.19;5069817;28;46033;-67
2023/12/15 01:32:29;;;;;;;;;11.75;9.75;;;;;11.05;87.53;102569.16;5061628;28;45803;-67
2023/12/15 01:34:55;;;;;;;;;11.50;9.00;;;;;11.16;87.22;102585.16;5060744;28;46037;-66
2023/12/15 01:37:23;;;;;;;;;8.00;8.00;;;;;10.96;87.38;102558.53;5061285;28;45653;-67
2023/12/15 01:39:51;;;;;;;;;4.75;3.50;;;;;11.07;87.52;102586.06;5080016;28;45374;-67
2023/12/15 01:42:17;;;;;;;;;10.00;9.75;;;;;11.05;87.54;102574.50;5065072;28;45779;-66
2023/12/15 01:44:43;;;;;;;;;11.50;9.75;;;;;11.29;87.36;102602.91;5060305;28;45458;-67
2023/12/15 01:47:13;;;;;;;;;9.75;6.75;;;;;11.07;87.66;102563.81;5062763;28;45450;-66
2023/12/15 01:49:38;;;;;;;;;7.50;7.50;;;;;11.09;87.71;102572.69;5078906;28;46272;-66
2023/12/15 01:52:06;;;;;;;;;11.00;10.25;;;;;11.22;87.60;102590.44;5064302;28;45240;-66
2023/12/15 01:54:42;;;;;;;;;9.00;8.00;;;;;11.32;87.92;102607.31;5059974;28;45665;-67
2023/12/15 01:57:10;;;;;;;;;6.00;6.00;;;;;11.24;87.21;102609.16;5072575;28;45362;-67
2023/12/15 01:59:49;;;;;;;;;10.75;10.25;;;;;11.22;88.06;102594.91;5066397;28;46313;-67
2023/12/15 02:02:15;;;;;;;;;8.25;7.75;;;;;11.31;87.85;102613.59;5067337;28;45559;-67
2023/12/15 02:04:40;;;;;;;;;13.50;11.00;;;;;11.13;87.88;102596.75;5059957;28;45323;-66
2023/12/15 02:07:10;;;;;;;;;13.25;13.00;;;;;11.17;88.08;102607.41;5066354;28;45481;-67
2023/12/15 02:09:46;;;;;;;;;11.50;10.00;;;;;11.20;88.17;102613.63;5068895;28;46936;-67
2023/12/15 02:12:16;;;;;;;;;10.25;9.25;;;;;11.21;88.61;102618.09;5070772;28;45672;-68
2023/12/15 02:14:44;;;;;;;;;12.75;12.75;;;;;11.19;88.54;102616.31;5059728;28;45344;-67
2023/12/15 02:17:15;;;;;;;;;17.75;13.75;;;;;11.13;88.33;102601.19;5075322;27;45385;-67
2023/12/15 02:19:48;;;;;;;;;14.25;12.25;;;;;11.34;88.38;102640.28;5059317;28;45485;-68
2023/12/15 02:22:13;;;;;;;;;18.00;17.75;;;;;11.49;88.61;102666.06;5082323;27;45678;-68
2023/12/15 02:24:41;;;;;;;;;16.75;14.00;;;;;11.44;88.51;102650.06;5075954;27;45394;-68
2023/12/15 02:27:06;;;;;;;;;15.50;14.00;;;;;11.22;88.92;102621.66;5070798;28;45381;-68
2023/12/15 02:29:34;;;;;;;;;15.50;15.50;;;;;11.23;88.45;102610.06;5065240;28;46138;-68
2023/12/15 02:32:07;;;;;;;;;16.25;15.25;;;;;11.35;88.96;102626.03;5067733;28;45621;-68
2023/12/15 02:34:32;;;;;;;;;16.50;12.75;;;;;11.46;88.93;102656.28;5075162;27;45352;-68
2023/12/15 02:36:58;;;;;;;;;16.00;14.75;;;;;11.40;89.00;102644.72;5059263;28;45355;-68
2023/12/15 02:39:25;;;;;;;;;16.25;15.00;;;;;11.55;88.94;102670.50;5076963;28;45310;-68
2023/12/15 02:41:51;;;;;;;;;21.25;16.75;;;;;11.37;89.17;102636.72;5067741;28;45858;-68
2023/12/15 02:44:18;;;;;;;;;21.25;18.50;;;;;11.24;89.14;102607.38;5074846;28;45410;-68
2023/12/15 02:46:44;;;;;;;;;13.25;12.25;;;;;11.38;88.85;102646.53;5057716;28;45604;-68
2023/12/15 02:49:19;;;;;;;;;12.25;11.25;;;;;11.42;88.63;102641.13;5066043;28;46026;-68
2023/12/15 02:51:45;;;;;;;;;12.75;11.25;;;;;11.35;88.46;102642.06;5068875;28;45493;-68
2023/12/15 02:54:12;;;;;;;;;11.00;11.00;;;;;11.41;88.87;102659.84;5079082;28;45477;-68
2023/12/15 02:56:38;;;;;;;;;11.75;11.75;;;;;11.16;88.33;102625.25;5094194;27;45487;-68
2023/12/15 02:59:06;;;;;;;;;14.75;12.75;;;;;11.39;88.59;102661.66;5065924;28;46079;-68
2023/12/15 03:01:31;;;;;;;;;12.75;12.75;;;;;11.51;88.63;102680.34;5079047;28;45420;-68
2023/12/15 03:03:57;;;;;;;;;17.00;14.25;;;;;11.39;88.79;102662.53;5079282;28;45790;-68
2023/12/15 03:06:22;;;;;;;;;15.50;11.75;;;;;11.42;88.60;102675.91;5070967;28;45367;-68
2023/12/15 03:08:48;;;;;;;;;11.50;8.75;;;;;11.55;88.55;102706.16;5075692;28;45694;-68
2023/12/15 03:11:13;;;;;;;;;11.25;11.00;;;;;11.40;88.13;102687.50;5078405;27;45444;-68
2023/12/15 03:13:39;;;;;;;;;14.50;12.50;;;;;11.42;88.67;102691.94;5078294;28;45313;-68
2023/12/15 03:16:11;;;;;;;;;14.00;12.00;;;;;11.37;88.35;102680.38;5072662;28;45406;-67
2023/12/15 03:18:40;;;;;;;;;14.50;11.50;;;;;11.30;88.27;102679.53;5077081;28;46413;-68
2023/12/15 03:21:08;;;;;;;;;13.00;13.00;;;;;11.42;89.12;102699.97;5077268;28;45678;-68
2023/12/15 03:23:34;;;;;;;;;14.25;11.00;;;;;11.64;88.38;102734.63;5077224;28;45522;-68
2023/12/15 03:25:59;;;;;;;;;13.50;13.25;;;;;11.19;88.36;102661.75;5078166;28;45347;-67
2023/12/15 03:28:27;;;;;;;;;10.25;10.25;;;;;11.45;88.25;102720.47;5077212;28;47964;-67
2023/12/15 03:30:54;;;;;;;;;11.00;10.75;;;;;11.27;87.91;102689.34;5075788;28;45647;-68
2023/12/15 03:33:28;;;;;;;;;12.00;11.00;;;;;11.30;87.98;102706.25;5058804;28;45494;-67
2023/12/15 03:35:53;;;;;;;;;14.25;13.50;;;;;11.28;87.70;102707.19;5073708;28;45434;-68
2023/12/15 03:38:20;;;;;;;;;12.00;11.00;;;;;11.17;87.88;102699.19;5067325;28;46202;-68
2023/12/15 03:40:48;;;;;;;;;12.25;12.00;;;;;11.37;88.68;102743.69;5076166;28;45605;-68
2023/12/15 03:43:16;;;;;;;;;17.00;14.75;;;;;11.26;88.29;102728.56;5068258;28;45371;-67
2023/12/15 03:45:42;;;;;;;;;11.50;11.50;;;;;11.32;88.30;102736.53;5061628;28;45532;-68
2023/12/15 03:48:07;;;;;;;;;12.00;11.00;;;;;11.33;88.33;102734.78;5065231;28;45391;-68
2023/12/15 03:50:35;;;;;;;;;13.50;13.50;;;;;11.26;88.74;102727.66;5058207;28;45686;-67
2023/12/15 03:53:00;;;;;;;;;13.75;13.75;;;;;11.20;88.78;102730.38;5068778;28;45307;-67
2023/12/15 03:55:26;;;;;;;;;15.25;13.50;;;;;11.36;88.65;102750.81;5060862;28;45306;-68
2023/12/15 03:57:51;;;;;;;;;16.25;13.25;;;;;11.20;88.67;102739.28;5072455;28;45494;-68
2023/12/15 04:00:18;;;;;;;;;12.75;12.50;;;;;11.23;89.01;102744.59;5064228;28;45523;-67
2023/12/15 04:02:46;;;;;;;;;15.75;14.25;;;;;11.25;88.62;102747.28;5061819;28;45538;-67
2023/12/15 04:05:16;;;;;;;;;15.00;13.25;;;;;11.36;89.01;102769.53;5061408;28;45500;-68
2023/12/15 04:07:42;;;;;;;;;15.25;13.25;;;;;11.45;88.74;102779.31;5076343;27;47292;-67
2023/12/15 04:10:09;;;;;;;;;9.25;8.75;;;;;11.46;88.95;102787.31;5073768;28;45463;-67
2023/12/15 04:12:37;;;;;;;;;14.00;10.75;;;;;11.29;88.55;102755.28;5069570;28;45499;-67
2023/12/15 04:15:08;;;;;;;;;11.25;9.00;;;;;11.42;88.55;102776.63;5077111;28;45541;-68
2023/12/15 04:17:34;;;;;;;;;15.25;11.50;;;;;11.46;88.36;102792.66;5067940;28;45631;-67
2023/12/15 04:19:59;;;;;;;;;16.50;12.50;;;;;11.34;88.28;102787.34;5083904;27;45489;-68
2023/12/15 04:22:24;;;;;;;;;12.50;11.50;;;;;11.37;88.24;102789.13;5077177;28;45381;-67
2023/12/15 04:24:55;;;;;;;;;13.50;11.75;;;;;11.56;88.27;102822.03;5074644;28;45367;-67
2023/12/15 04:27:22;;;;;;;;;14.25;12.00;;;;;11.57;88.53;102821.16;5076640;28;45966;-67
2023/12/15 04:29:50;;;;;;;;;11.50;11.00;;;;;11.15;88.33;102754.44;5061451;28;45303;-67
2023/12/15 04:32:21;;;;;;;;;12.00;12.00;;;;;11.40;88.11;102792.69;5062390;28;45509;-67
2023/12/15 04:34:48;;;;;;;;;12.25;11.25;;;;;11.47;88.00;102804.25;5072324;28;45318;-67
2023/12/15 04:37:14;;;;;;;;;16.50;13.25;;;;;11.56;88.63;102822.03;5060706;28;45693;-67
2023/12/15 04:39:44;;;;;;;;;11.00;9.25;;;;;11.54;88.72;102813.13;5079792;28;45789;-67
2023/12/15 04:42:12;;;;;;;;;13.75;12.00;;;;;11.40;88.29;102794.47;5095053;27;45258;-67
2023/12/15 04:44:37;;;;;;;;;14.50;11.50;;;;;11.59;88.15;102828.25;5073702;28;45526;-67
2023/12/15 04:47:03;;;;;;;;;14.75;12.75;;;;;11.60;88.03;102840.75;5088309;27;45456;-67
2023/12/15 04:49:28;;;;;;;;;12.75;11.50;;;;;11.47;88.09;102825.66;5068648;28;45218;-67
2023/12/15 04:52:04;;;;;;;;;12.25;10.25;;;;;11.50;88.17;102821.16;5067664;28;45616;-67
2023/12/15 04:54:29;;;;;;;;;16.50;11.00;;;;;11.58;88.24;102833.66;5071694;28;45499;-67
2023/12/15 04:56:54;;;;;;;;;18.00;13.75;;;;;11.52;88.07;102830.97;5066301;28;45445;-67
2023/12/15 04:59:24;;;;;;;;;13.50;11.50;;;;;11.46;87.93;102811.38;5071801;28;45442;-67
2023/12/15 05:01:54;;;;;;;;;13.25;11.75;;;;;11.53;87.84;102824.72;5060709;28;45520;-67
2023/12/15 05:04:27;;;;;;;;;13.00;13.00;;;;;11.51;87.90;102816.72;5070046;28;45472;-67
2023/12/15 05:07:00;;;;;;;;;12.75;10.50;;;;;11.51;87.83;102822.09;5061194;28;47090;-67
2023/12/15 05:09:27;;;;;;;;;14.50;11.50;;;;;11.49;87.96;102827.44;5081337;27;45685;-67
2023/12/15 05:11:55;;;;;;;;;17.50;13.00;;;;;11.54;87.97;102842.56;5074300;27;45453;-67
2023/12/15 05:14:26;;;;;;;;;13.00;12.25;;;;;11.67;88.09;102868.38;5060590;28;45763;-67
2023/12/15 05:16:51;;;;;;;;;10.75;9.00;;;;;11.42;88.35;102822.09;5060195;28;45361;-67
2023/12/15 05:19:17;;;;;;;;;9.75;9.75;;;;;11.45;87.92;102832.78;5060356;28;45517;-68
2023/12/15 05:21:42;;;;;;;;;11.75;11.75;;;;;11.38;88.19;102820.34;5060853;28;45317;-67
2023/12/15 05:24:09;;;;;;;;;9.00;9.00;;;;;11.63;88.27;102869.31;5060190;28;45286;-67
2023/12/15 05:26:35;;;;;;;;;13.25;11.50;;;;;11.58;88.12;102855.06;5058899;28;47027;-67
2023/12/15 05:29:03;;;;;;;;;12.00;10.50;;;;;11.60;87.94;102861.28;5060272;28;45352;-67
2023/12/15 05:31:28;;;;;;;;;13.50;12.25;;;;;11.59;87.56;102852.34;5075880;27;45505;-67
2023/12/15 05:33:56;;;;;;;;;15.00;11.00;;;;;11.50;87.58;102842.56;5060206;28;45554;-67
2023/12/15 05:36:21;;;;;;;;;11.00;11.00;;;;;11.58;87.80;102855.94;5060165;28;46348;-67
2023/12/15 05:38:48;;;;;;;;;12.00;10.75;;;;;11.58;87.80;102852.38;5070413;28;45531;-67
2023/12/15 05:41:13;;;;;;;;;12.00;12.00;;;;;11.63;88.16;102862.16;5074057;28;45352;-67
2023/12/15 05:43:39;;;;;;;;;15.00;11.00;;;;;11.57;87.89;102851.47;5075459;28;45797;-67
2023/12/15 05:46:08;;;;;;;;;10.75;10.25;;;;;11.56;87.83;102856.81;5065383;28;46375;-67
2023/12/15 05:48:35;;;;;;;;;12.00;10.75;;;;;11.76;88.04;102886.19;5068272;28;45541;-67
2023/12/15 05:51:02;;;;;;;;;12.75;11.75;;;;;11.57;87.86;102863.97;5060254;28;45323;-67
2023/12/15 05:53:30;;;;;;;;;13.00;11.75;;;;;11.59;87.95;102864.84;5059703;28;45352;-67
2023/12/15 05:55:55;;;;;;;;;12.50;12.50;;;;;11.75;87.76;102890.66;5059903;28;46455;-67
2023/12/15 05:58:21;;;;;;;;;12.50;12.25;;;;;11.53;87.70;102847.03;5077331;28;45642;-67
2023/12/15 06:00:46;;;;;;;;;14.00;12.00;;;;;11.68;87.83;102871.06;5060007;28;45545;-67
2023/12/15 06:03:15;;;;;;;;;13.25;11.50;;;;;11.43;88.01;102839.94;5061471;28;45449;-67
2023/12/15 06:05:40;;;;;;;;;11.25;10.00;;;;;11.60;87.84;102863.94;5074864;28;47629;-67
2023/12/15 06:08:05;;;;;;;;;13.25;12.00;;;;;11.47;87.94;102861.28;5073055;28;45312;-67
2023/12/15 06:10:33;;;;;;;;;14.25;12.00;;;;;11.60;87.59;102872.84;5078767;27;45355;-67
2023/12/15 06:12:59;;;;;;;;;11.50;10.25;;;;;11.51;87.82;102870.22;5064113;28;45534;-67
2023/12/15 06:15:24;;;;;;;;;12.00;10.00;;;;;11.64;87.91;102882.69;5059805;28;46133;-67
2023/12/15 06:17:49;;;;;;;;;15.00;12.00;;;;;11.62;88.00;102867.50;5073108;28;45461;-67
2023/12/15 06:20:15;;;;;;;;;12.00;11.75;;;;;11.47;87.91;102852.38;5059098;28;45386;-67
2023/12/15 06:22:43;;;;;;;;;15.75;9.75;;;;;11.78;87.79;102917.41;5059482;28;45378;-67
2023/12/15 06:25:11;;;;;;;;;11.75;11.25;;;;;11.78;87.64;102913.84;5059326;28;46144;-67
2023/12/15 06:27:39;;;;;;;;;14.75;13.00;;;;;11.54;87.88;102872.88;5059404;28;45537;-68
2023/12/15 06:30:07;;;;;;;;;12.75;11.25;;;;;11.73;87.89;102912.94;5064729;28;45424;-67
2023/12/15 06:32:35;;;;;;;;;14.25;12.00;;;;;11.45;87.82;102865.75;5080084;27;45752;-67
2023/12/15 06:35:00;;;;;;;;;13.50;12.00;;;;;11.47;88.01;102884.47;5072518;28;46540;-67
2023/12/15 06:37:28;;;;;;;;;9.50;9.50;;;;;11.46;87.89;102888.03;5064554;28;45354;-67
2023/12/15 06:39:55;;;;;;;;;14.00;13.50;;;;;11.52;87.78;102900.53;5077616;28;45474;-67
2023/12/15 06:42:21;;;;;;;;;11.50;9.75;;;;;11.66;87.94;102934.38;5062156;28;45609;-67
2023/12/15 06:44:47;;;;;;;;;12.25;12.25;;;;;11.63;87.90;102933.50;5061943;28;46309;-67
2023/12/15 06:47:12;;;;;;;;;11.00;10.50;;;;;11.56;87.88;102907.63;5063571;28;45375;-67
2023/12/15 06:49:38;;;;;;;;;13.25;13.00;;;;;11.50;88.29;102909.44;5063555;27;45582;-67
2023/12/15 06:52:05;;;;;;;;;16.00;14.00;;;;;11.59;87.79;102918.34;5059775;28;45504;-67
2023/12/15 06:54:30;;;;;;;;;11.50;10.00;;;;;11.53;87.82;102921.91;5072795;28;45503;-76
2023/12/15 06:57:12;;;;;;;;;18.00;14.00;;;;;11.67;87.79;102945.97;5059340;28;45315;-76
2023/12/15 07:00:00;;;;;;;;;14.25;12.75;;;;;11.49;87.80;102926.38;5077032;27;47077;-77
2023/12/15 07:02:25;;;;;;;;;15.75;11.50;;;;;11.33;87.79;102889.84;5060801;28;45640;-74
2023/12/15 07:04:53;;;;;;;;;10.00;9.75;;;;;11.49;88.20;102901.41;5057417;28;48044;-74
2023/12/15 07:07:19;;;;;;;;;13.75;11.25;;;;;11.80;88.33;102946.84;5068491;28;45781;-74
2023/12/15 07:09:52;;;;;;;;;14.50;12.00;;;;;11.83;88.00;102962.91;5077154;27;45468;-73
2023/12/15 07:12:17;;;;;;;;;10.00;8.50;;;;;11.71;87.91;102962.91;5068873;28;45452;-74
2023/12/15 07:14:43;;;;;;;;;17.75;16.25;;;;;11.80;87.59;102993.22;5058078;28;45536;-74
2023/12/15 07:17:08;;;;;;;;;17.75;13.75;;;;;11.60;87.97;102963.81;5066674;28;45344;-74
2023/12/15 07:19:34;;;;;;;;;14.50;14.50;;;;;11.93;87.78;103018.22;5074457;28;45320;-73
2023/12/15 07:22:09;;;;;;;;;14.75;12.00;;;;;11.70;87.71;102988.78;5070920;28;45465;-74
2023/12/15 07:24:53;;;;;;;;;14.75;13.50;;;;;11.98;87.74;103032.47;5058613;27;47106;-74
2023/12/15 07:27:41;;;;;;;;;19.00;13.00;;;;;11.69;87.71;102986.97;5070260;28;45862;-74
2023/12/15 07:30:09;;;;;;;;;13.25;13.25;;;;;11.61;87.81;102972.72;5077204;28;45367;-74
2023/12/15 07:33:13;;;;;;;;;17.25;12.00;;;;;11.63;87.65;102966.47;5070915;28;45743;-74
2023/12/15 07:53:46;;;;;;;;;16.00;15.75;;;;;12.02;87.36;103052.09;5537012;22;46736;-67
2023/12/15 07:56:25;;;;;;;;;16.00;15.00;;;;;11.96;87.42;103036.94;5048530;28;46858;-67
2023/12/15 07:59:00;;;;;;;;;18.25;14.75;;;;;11.77;87.16;103019.09;5059463;28;45655;-67
2023/12/15 08:01:28;;;;;;;;;14.75;14.00;;;;;12.07;86.90;103057.44;5060556;28;45509;-67
2023/12/15 08:03:54;;;;;;;;;20.75;18.50;;;;;11.81;86.94;103013.75;5061386;28;45316;-68
2023/12/15 08:06:19;;;;;;;;;16.75;16.75;;;;;11.86;86.79;103024.41;5061061;28;45398;-67
2023/12/15 08:08:54;;;;;;;;;11.50;11.00;;;;;11.87;87.02;103040.47;5042421;28;45687;-67
2023/12/15 08:11:19;;;;;;;;;11.75;11.00;;;;;11.87;87.16;103051.19;5051592;28;45486;-67
2023/12/15 08:13:45;;;;;;;;;12.25;12.25;;;;;11.92;87.67;103066.38;5056296;28;46332;-68
2023/12/15 08:34:40;;;;;;;;;;;;;;;;;;;;;
2023/12/15 08:57:56;;;;;;;;;16.50;14.75;;;;;11.98;87.72;103126.16;5104039;22;45410;-77
2023/12/15 09:00:22;;;;;;;;;20.00;18.00;;;;;11.97;87.66;103128.84;5051958;28;57606;-77
2023/12/15 09:02:50;;;;;;;;;20.25;17.75;;;;;11.96;87.63;103135.06;5059818;28;45413;-78
2023/12/15 09:05:15;;;;;;;;;19.25;16.50;;;;;11.96;87.76;103135.06;5038817;28;45468;-78
2023/12/15 09:07:40;;;;;;;;;20.75;19.25;;;;;11.97;87.80;103140.44;5029011;28;53955;-77
2023/12/15 09:10:06;;;;;;;;;23.75;22.50;;;;;11.95;87.55;103127.94;5039419;28;45395;-77
2023/12/15 09:12:32;;;;;;;;;27.25;22.75;;;;;11.90;87.64;103127.91;5030353;28;45481;-77
2023/12/15 09:14:59;;;;;;;;;21.00;19.00;;;;;11.89;87.71;103130.59;5038065;28;60574;-78
2023/12/15 09:17:24;;;;;;;;;20.25;17.00;;;;;11.94;87.93;103148.44;5036261;28;45493;-77
2023/12/15 09:19:50;;;;;;;;;21.00;21.00;;;;;11.86;87.80;103127.03;5036871;28;45450;-77
2023/12/15 09:22:15;;;;;;;;;16.25;16.25;;;;;11.93;87.93;103132.38;5040556;28;45406;-78
2023/12/15 09:24:41;;;;;;;;;25.00;21.50;;;;;11.94;87.77;103155.59;5037632;28;45729;-77
2023/12/15 09:27:06;;;;;;;;;21.50;18.50;;;;;11.97;88.00;103166.31;5034609;28;47140;-77
2023/12/15 09:29:34;;;;;;;;;21.75;18.75;;;;;11.97;87.98;103167.19;5037016;28;52685;-79
2023/12/15 09:32:00;;;;;;;;;23.50;18.75;;;;;11.94;88.10;103156.47;5038125;28;45373;-77
2023/12/15 09:34:25;;;;;;;;;21.25;18.75;;;;;11.94;88.20;103167.19;5031085;28;45751;-78
2023/12/15 09:36:50;;;;;;;;;23.00;20.75;;;;;11.99;88.38;103177.91;5037423;28;45510;-80
2023/12/15 09:39:15;;;;;;;;;26.50;20.75;;;;;11.88;88.60;103153.78;5040200;28;55587;-82
2023/12/15 09:41:41;;;;;;;;;21.00;18.00;;;;;11.96;88.63;103169.88;5035750;28;51705;-78
2023/12/15 09:44:06;;;;;;;;;22.00;20.75;;;;;11.93;88.42;103167.19;5036168;28;45551;-80
2023/12/15 09:46:32;;;;;;;;;24.50;21.75;;;;;11.96;88.47;103180.56;5017331;28;48149;-80
2023/12/15 09:48:57;;;;;;;;;24.50;23.75;;;;;11.95;88.69;103178.81;5037284;28;45461;-81
2023/12/15 09:51:25;;;;;;;;;26.50;23.75;;;;;11.94;88.60;103185.91;5038737;28;45742;-81
2023/12/15 09:53:51;;;;;;;;;24.00;22.00;;;;;11.86;88.55;103182.31;5030774;28;45511;-77
2023/12/15 09:56:17;;;;;;;;;22.25;21.50;;;;;11.97;88.62;103198.44;5031241;28;48355;-79
2023/12/15 09:58:42;;;;;;;;;28.50;21.00;;;;;11.98;88.77;103208.25;5041341;28;45468;-77
2023/12/15 10:01:09;;;;;;;;;27.75;27.00;;;;;11.98;88.72;103201.13;5055431;28;45625;-77
2023/12/15 10:03:35;;;;;;;;;29.00;26.00;;;;;11.98;88.87;103208.25;5054415;28;45464;-77
2023/12/15 10:06:00;;;;;;;;;19.00;14.00;;;;;11.96;88.84;103204.66;5052745;28;50892;-77
2023/12/15 10:08:39;;;;;;;;;26.25;21.75;;;;;12.00;88.90;103218.06;5058037;28;45389;-77
2023/12/15 10:11:04;;;;;;;;;28.25;25.00;;;;;12.00;89.05;103220.75;5039839;28;45499;-77
2023/12/15 10:13:30;;;;;;;;;30.00;26.50;;;;;12.00;89.32;103219.84;5058555;28;45452;-77
2023/12/15 10:15:55;;;;;;;;;32.25;25.75;;;;;11.99;89.25;103218.94;5058083;28;45402;-77
2023/12/15 10:18:20;;;;;;;;;29.00;27.75;;;;;12.02;89.43;103221.63;5058416;28;45314;-77
2023/12/15 10:20:46;;;;;;;;;30.50;26.00;;;;;11.99;89.47;103212.69;5058071;28;45523;-77
2023/12/15 10:23:11;;;;;;;;;22.00;22.00;;;;;12.05;89.51;103218.06;5057666;28;45377;-77
2023/12/15 10:25:36;;;;;;;;;31.00;30.50;;;;;12.03;89.62;103218.06;5049403;28;45469;-77
2023/12/15 10:28:05;;;;;;;;;28.00;23.75;;;;;12.03;89.66;103215.38;5057853;28;45469;-77
2023/12/15 10:30:30;;;;;;;;;26.75;25.25;;;;;12.10;89.65;103224.31;5057853;28;45290;-77
2023/12/15 10:32:59;;;;;;;;;29.25;24.25;;;;;12.12;89.74;103222.53;5051506;28;45311;-77
2023/12/15 10:35:25;;;;;;;;;27.50;25.00;;;;;12.16;89.69;103228.78;5050655;28;45370;-77
2023/12/15 10:37:52;;;;;;;;;27.00;23.50;;;;;12.18;89.85;103232.38;5057560;28;45736;-77
2023/12/15 10:40:17;;;;;;;;;29.25;29.25;;;;;12.22;89.33;103248.41;5055485;28;45338;-76
2023/12/15 10:42:44;;;;;;;;;27.25;23.50;;;;;12.23;89.36;103258.25;5057863;28;45322;-75
2023/12/15 10:45:10;;;;;;;;;30.25;28.25;;;;;12.25;89.34;103260.94;5055316;28;45409;-77
2023/12/15 10:47:35;;;;;;;;;24.50;24.00;;;;;12.26;89.25;103257.34;5053696;28;45306;-76
2023/12/15 10:50:02;;;;;;;;;30.75;27.50;;;;;12.31;89.43;103260.94;5052895;28;45567;-76
2023/12/15 10:52:27;;;;;;;;;25.75;24.75;;;;;12.37;89.13;103263.59;5042758;28;45278;-77
2023/12/15 10:54:54;;;;;;;;;27.75;23.75;;;;;12.39;89.27;103258.25;5057526;28;45505;-77
2023/12/15 10:57:20;;;;;;;;;22.00;20.50;;;;;12.41;89.15;103259.13;5057127;28;45647;-77
2023/12/15 10:59:47;;;;;;;;;27.00;22.25;;;;;12.49;88.98;103278.78;5052841;28;45411;-77
2023/12/15 11:02:14;;;;;;;;;22.25;19.00;;;;;12.50;88.72;103285.94;5051266;28;45532;-77
2023/12/15 11:04:39;;;;;;;;;24.00;19.75;;;;;12.56;88.46;103294.00;5045434;28;46649;-77
2023/12/15 11:07:05;;;;;;;;;17.00;16.25;;;;;12.57;88.37;103309.16;5037484;28;45262;-77
2023/12/15 11:09:32;;;;;;;;;16.25;16.25;;;;;12.61;88.56;103318.09;5049066;28;45243;-77
2023/12/15 11:12:22;;;;;;;;;22.50;20.25;;;;;12.65;88.50;103321.69;5055094;28;45465;-76
2023/12/15 11:14:56;;;;;;;;;19.75;16.00;;;;;12.61;88.01;103318.09;5051130;28;47933;-76
2023/12/15 11:17:21;;;;;;;;;13.50;13.25;;;;;12.66;88.03;103332.38;5044328;28;45310;-76
2023/12/15 11:19:53;;;;;;;;;19.75;15.50;;;;;12.67;88.02;103322.56;5036519;28;45424;-77
2023/12/15 11:22:20;;;;;;;;;20.00;18.50;;;;;12.73;88.12;103336.88;5048691;28;45540;-76
2023/12/15 11:24:46;;;;;;;;;22.25;16.75;;;;;12.72;88.37;103344.91;5053894;28;46057;-77
2023/12/15 11:27:13;;;;;;;;;25.25;21.50;;;;;12.76;88.39;103344.00;5044339;28;45468;-77
2023/12/15 11:29:38;;;;;;;;;22.25;21.00;;;;;12.77;88.41;103344.00;5051400;28;45441;-77
2023/12/15 11:32:30;;;;;;;;;23.50;22.75;;;;;12.77;88.18;103353.84;5057015;28;45294;-76
2023/12/15 11:34:55;;;;;;;;;23.25;21.00;;;;;12.74;88.33;103353.81;5038122;28;47935;-76
2023/12/15 11:37:21;;;;;;;;;26.25;24.00;;;;;12.71;88.47;103349.38;5056929;28;45516;-76
2023/12/15 11:39:46;;;;;;;;;24.25;23.50;;;;;12.67;88.59;103349.38;5050958;28;45395;-76
2023/12/15 11:42:14;;;;;;;;;22.50;22.00;;;;;12.73;88.75;103357.38;5055651;28;45318;-76
2023/12/15 11:44:41;;;;;;;;;20.25;18.75;;;;;12.74;88.80;103351.16;5044295;28;45242;-76
2023/12/15 11:47:07;;;;;;;;;21.75;21.75;;;;;12.75;88.84;103329.72;5039651;28;45740;-76
2023/12/15 11:49:32;;;;;;;;;26.75;24.50;;;;;12.60;88.40;103279.69;5046672;28;51375;-76
2023/12/15 11:51:57;;;;;;;;;25.50;24.00;;;;;12.78;88.27;103284.16;5053722;28;45220;-77
2023/12/15 11:54:25;;;;;;;;;23.50;20.75;;;;;12.79;88.39;103280.56;5048352;28;45411;-76
2023/12/15 11:56:51;;;;;;;;;35.50;28.75;;;;;12.80;88.55;103273.44;5053616;28;45246;-76
2023/12/15 11:59:16;;;;;;;;;26.75;23.50;;;;;12.85;88.51;103271.63;5054000;28;45394;-76
2023/12/15 12:01:42;;;;;;;;;28.00;24.00;;;;;12.83;88.41;103276.09;5049585;28;45428;-76
2023/12/15 12:04:18;;;;;;;;;25.00;21.25;;;;;12.91;88.12;103285.03;5048038;28;46796;-77
2023/12/15 12:06:44;;;;;;;;;35.50;31.75;;;;;12.91;87.88;103273.41;5048616;28;45425;-77
2023/12/15 12:09:11;;;;;;;;;26.50;22.75;;;;;12.89;87.43;103281.44;5046750;28;45260;-76
2023/12/15 12:11:36;;;;;;;;;28.25;25.75;;;;;12.94;87.71;103295.72;5044456;28;45215;-76
2023/12/15 12:14:03;;;;;;;;;31.75;27.25;;;;;12.97;87.55;103297.53;5047311;28;46934;-76